Harle — ZCTV4 — position and weather

sailwx.info

Track history (hours):
 
Tides and Currents Weather Stations Pressure Air Temp Water Temp Dewpoint Dewpoint Depression Visibility Wind Speed Wind Dir Waves Ship Positions

Harle

Last reported at 2014-Jul-27 00:34 UTC. Time now 2014-Jul-28 20:35 UTC.
Position N 42°58' E 007°07'.

Length 45 m; draft 2.7 m.

Type: Pleasure craft. MMSI: 319323000.

Date/timePositionNaut miles runAvg speedWind from/ knotsBaromVisibWave heightAir tempDewpointWater temp
2014-Jul-27 00:34N 42°58' E 007°07'1312.9
2014-Jul-26 23:33N 43°07' E 006°54'1312.7
2014-Jul-26 22:33N 43°17' E 006°43'4 4.2
2014-Jul-26 21:34N 43°17' E 006°38'0 0.0
2014-Jul-26 20:34N 43°17' E 006°38'0 0.0
2014-Jul-26 19:32N 43°16' E 006°38'0 0.0
2014-Jul-26 18:33N 43°17' E 006°38'0 0.0
2014-Jul-26 17:33N 43°17' E 006°38'2 1.8
2014-Jul-26 16:33N 43°17' E 006°40'3 3.2
2014-Jul-26 15:33N 43°14' E 006°40'0 0.0
2014-Jul-26 14:33N 43°14' E 006°40'0 0.0
2014-Jul-26 13:34N 43°14' E 006°40'0 0.0
2014-Jul-26 12:33N 43°14' E 006°40'0 0.0
2014-Jul-26 11:34N 43°14' E 006°40'0 0.0
2014-Jul-26 10:34N 43°14' E 006°40'3 3.4
2014-Jul-26 09:33N 43°17' E 006°38'0 0.3
2014-Jul-26 08:34N 43°16' E 006°38'0 0.0
2014-Jul-26 07:33N 43°16' E 006°38'0 0.0
2014-Jul-26 06:33N 43°16' E 006°38'0 0.0
2014-Jul-26 05:34N 43°16' E 006°38'0 0.0
2014-Jul-26 04:33N 43°16' E 006°38'0 0.0
2014-Jul-26 03:33N 43°16' E 006°38'0 0.0
2014-Jul-26 02:33N 43°16' E 006°38'0 0.0
2014-Jul-26 01:32N 43°16' E 006°38'0 0.0
2014-Jul-26 00:32N 43°16' E 006°38'0 0.0
2014-Jul-25 23:34N 43°16' E 006°38'0 0.0
2014-Jul-25 22:33N 43°16' E 006°38'0 0.0
2014-Jul-25 21:34N 43°16' E 006°38'0 0.0
2014-Jul-25 20:34N 43°16' E 006°38'0 0.0
2014-Jul-25 19:34N 43°16' E 006°38'0 0.0
2014-Jul-25 18:33N 43°16' E 006°38'0 0.0
2014-Jul-25 17:34N 43°16' E 006°38'0 0.0
2014-Jul-25 16:33N 43°16' E 006°38'0 0.1
2014-Jul-25 15:33N 43°16' E 006°38'3 2.4
2014-Jul-25 14:19N 43°14' E 006°40'0 0.0
2014-Jul-25 13:28N 43°14' E 006°40'0 0.0
2014-Jul-25 10:22N 43°14' E 006°40'3 3.7
2014-Jul-25 09:33N 43°17' E 006°38'1 0.8
2014-Jul-25 08:33N 43°16' E 006°37'0 0.0
2014-Jul-25 07:33N 43°16' E 006°37'0 0.0
2014-Jul-25 06:34N 43°16' E 006°37'0 0.0
2014-Jul-25 05:33N 43°16' E 006°37'0 0.0
2014-Jul-25 04:34N 43°16' E 006°37'0 0.0
2014-Jul-25 03:33N 43°16' E 006°37'0 0.0
2014-Jul-25 02:34N 43°16' E 006°37'0 0.0
2014-Jul-25 01:34N 43°16' E 006°37'0 0.0
2014-Jul-25 00:34N 43°16' E 006°37'0 0.0
2014-Jul-24 23:34N 43°16' E 006°37'0 0.0
2014-Jul-24 22:33N 43°16' E 006°37'0 0.0
2014-Jul-24 21:34N 43°16' E 006°37'0 0.0
2014-Jul-24 20:33N 43°16' E 006°37'0 0.0
2014-Jul-24 19:33N 43°16' E 006°37'0 0.0
2014-Jul-24 18:34N 43°16' E 006°37'0 0.1
2014-Jul-24 17:34N 43°16' E 006°37'3 3.3
2014-Jul-24 16:33N 43°14' E 006°40'0 0.0
2014-Jul-24 15:33N 43°14' E 006°40'0 0.0
2014-Jul-24 14:33N 43°14' E 006°40'0 0.0
2014-Jul-24 13:34N 43°14' E 006°40'0 0.0
2014-Jul-24 12:33N 43°14' E 006°40'1 0.5
2014-Jul-24 11:33N 43°14' E 006°41'3 2.7
2014-Jul-24 10:33N 43°16' E 006°38'0 0.0
2014-Jul-24 09:33N 43°16' E 006°38'0 0.0
2014-Jul-24 08:34N 43°16' E 006°38'0 0.0
2014-Jul-24 07:33N 43°16' E 006°38'0 0.0
2014-Jul-24 06:33N 43°16' E 006°38'0 0.0
2014-Jul-24 05:34N 43°16' E 006°38'0 0.0
2014-Jul-24 04:33N 43°16' E 006°38'0 0.0
2014-Jul-24 03:34N 43°16' E 006°38'0 0.0
2014-Jul-24 02:34N 43°16' E 006°38'0 0.0
2014-Jul-24 01:33N 43°16' E 006°38'0 0.0
2014-Jul-24 00:34N 43°16' E 006°38'0 0.0
2014-Jul-23 23:34N 43°16' E 006°38'0 0.0
2014-Jul-23 22:33N 43°16' E 006°38'0 0.0
2014-Jul-23 21:33N 43°16' E 006°38'0 0.0
2014-Jul-23 20:34N 43°16' E 006°38'0 0.0
2014-Jul-23 19:33N 43°16' E 006°38'0 0.0
2014-Jul-23 18:33N 43°16' E 006°38'0 0.0
2014-Jul-23 17:33N 43°16' E 006°38'3 3.3
2014-Jul-23 16:34N 43°16' E 006°43'7 0.9
2014-Jul-23 08:34N 43°09' E 006°39'7 7.5
2014-Jul-23 07:33N 43°17' E 006°37'0 0.1
2014-Jul-23 06:33N 43°17' E 006°38'0 0.0
2014-Jul-23 05:33N 43°17' E 006°38'0 0.0
2014-Jul-23 04:33N 43°17' E 006°38'0 0.0
2014-Jul-23 03:33N 43°17' E 006°38'0 0.0
2014-Jul-23 02:34N 43°17' E 006°38'0 0.0
2014-Jul-23 01:33N 43°17' E 006°38'0 0.0
2014-Jul-23 00:32N 43°17' E 006°38'0 0.0
2014-Jul-22 23:33N 43°17' E 006°38'0 0.0
2014-Jul-22 22:33N 43°17' E 006°38'0 0.0
2014-Jul-22 21:30N 43°17' E 006°37'0 0.0
2014-Jul-22 20:33N 43°17' E 006°37'0 0.0
2014-Jul-22 19:33N 43°17' E 006°37'0 0.0
2014-Jul-22 18:33N 43°17' E 006°38'0 0.0
2014-Jul-22 17:33N 43°17' E 006°38'3 3.5
2014-Jul-22 16:33N 43°14' E 006°40'0 0.0
2014-Jul-22 13:18N 43°14' E 006°40'0 0.0
2014-Jul-22 12:33N 43°14' E 006°40'0 0.0
2014-Jul-22 11:34N 43°14' E 006°40'0 0.0
2014-Jul-22 10:34N 43°14' E 006°40'0 0.0
2014-Jul-22 09:33N 43°14' E 006°40'0 0.4
2014-Jul-22 08:33N 43°14' E 006°41'1211.9
2014-Jul-22 07:33N 43°22' E 006°52'1210.7
2014-Jul-22 06:26N 43°33' E 007°01'0 0.4
2014-Jul-22 05:31N 43°33' E 007°01'0 0.0
2014-Jul-22 04:31N 43°33' E 007°01'0 0.0
2014-Jul-22 03:25N 43°33' E 007°01'0 0.0
2014-Jul-22 02:28N 43°33' E 007°01'0 0.0
2014-Jul-22 01:28N 43°33' E 007°01'0 0.0
2014-Jul-22 00:31N 43°33' E 007°01'0 0.0
2014-Jul-21 23:31N 43°33' E 007°01'0 0.0
2014-Jul-21 22:31N 43°33' E 007°01'0 0.0
2014-Jul-21 21:31N 43°33' E 007°01'0 0.0
2014-Jul-21 20:09N 43°33' E 007°01'0 0.0
2014-Jul-21 19:19N 43°33' E 007°01'0 0.0
2014-Jul-21 18:19N 43°33' E 007°01'0 0.0
2014-Jul-21 17:33N 43°33' E 007°01'0 0.0
2014-Jul-21 16:19N 43°33' E 007°01'0 0.5
2014-Jul-21 15:32N 43°33' E 007°01'0 0.4
2014-Jul-21 14:29N 43°33' E 007°00'0 0.1
2014-Jul-21 13:32N 43°33' E 007°00'0 0.0
2014-Jul-21 12:26N 43°33' E 007°00'1 0.7
2014-Jul-21 11:31N 43°33' E 007°01'0 0.0
2014-Jul-21 10:19N 43°33' E 007°01'0 0.0
2014-Jul-21 09:10N 43°33' E 007°01'0 0.0
2014-Jul-21 08:25N 43°33' E 007°01'0 0.0
2014-Jul-21 07:28N 43°33' E 007°01'0 0.0
2014-Jul-21 06:28N 43°33' E 007°01'0 0.0
2014-Jul-21 05:28N 43°33' E 007°01'0 0.0
2014-Jul-21 04:31N 43°33' E 007°01'0 0.0
2014-Jul-21 03:28N 43°33' E 007°01'0 0.0
2014-Jul-21 02:25N 43°33' E 007°01'0 0.0
2014-Jul-21 01:28N 43°33' E 007°01'0 0.0
2014-Jul-21 00:25N 43°33' E 007°01'0 0.0
2014-Jul-20 23:22N 43°33' E 007°01'0 0.0
2014-Jul-20 22:31N 43°33' E 007°01'0 0.0
2014-Jul-20 21:28N 43°33' E 007°01'0 0.0
2014-Jul-20 20:28N 43°33' E 007°01'0 0.0
2014-Jul-20 19:28N 43°33' E 007°01'0 0.0
2014-Jul-20 18:31N 43°33' E 007°01'0 0.0
2014-Jul-20 17:19N 43°33' E 007°01'1 0.7
2014-Jul-20 16:33N 43°32' E 007°01'2 1.4
2014-Jul-20 15:28N 43°31' E 007°02'0 0.0
2014-Jul-20 14:28N 43°31' E 007°02'0 0.0
2014-Jul-20 13:31N 43°31' E 007°02'0 0.0
2014-Jul-20 12:25N 43°31' E 007°02'0 0.2
2014-Jul-20 11:27N 43°31' E 007°02'2 1.9
2014-Jul-20 10:27N 43°33' E 007°01'0 0.0
2014-Jul-20 09:30N 43°33' E 007°01'0 0.0
2014-Jul-20 08:30N 43°33' E 007°01'0 0.0
2014-Jul-20 07:27N 43°33' E 007°01'0 0.0
2014-Jul-20 06:27N 43°33' E 007°01'0 0.0
2014-Jul-20 05:30N 43°33' E 007°01'0 0.0
2014-Jul-20 04:30N 43°33' E 007°01'0 0.0
2014-Jul-20 03:33N 43°33' E 007°01'0 0.0
2014-Jul-20 02:27N 43°33' E 007°01'0 0.0
2014-Jul-20 01:33N 43°33' E 007°01'0 0.0
2014-Jul-20 00:29N 43°33' E 007°01'0 0.0
2014-Jul-19 23:30N 43°33' E 007°01'0 0.0
2014-Jul-19 22:33N 43°33' E 007°01'0 0.0
2014-Jul-19 21:33N 43°33' E 007°01'0 0.0
2014-Jul-19 20:33N 43°33' E 007°01'0 0.0
2014-Jul-19 19:24N 43°33' E 007°01'0 0.0
2014-Jul-19 18:33N 43°33' E 007°01'0 0.0
2014-Jul-19 17:33N 43°33' E 007°01'0 0.0
2014-Jul-19 16:26N 43°33' E 007°01'0 0.0
2014-Jul-19 13:27N 43°33' E 007°01'0 0.0
2014-Jul-19 12:08N 43°33' E 007°01'0 0.0
2014-Jul-19 11:23N 43°33' E 007°01'0 0.0
2014-Jul-19 10:21N 43°33' E 007°01'0 0.0
2014-Jul-17 20:24N 43°33' E 007°01'0 0.0
2014-Jul-17 18:15N 43°33' E 007°01'0 0.3
2014-Jul-17 17:33N 43°33' E 007°01'1111.6
2014-Jul-17 16:33N 43°23' E 006°53'1312.9
2014-Jul-17 15:33N 43°14' E 006°41'2 0.3
2014-Jul-17 08:22N 43°12' E 006°40'1 1.4
2014-Jul-17 07:32N 43°13' E 006°40'4 4.4
2014-Jul-17 06:33N 43°17' E 006°39'1 0.9
2014-Jul-17 05:33N 43°16' E 006°38'0 0.0
2014-Jul-17 04:33N 43°16' E 006°38'0 0.0
2014-Jul-17 03:33N 43°16' E 006°38'0 0.0
2014-Jul-17 02:33N 43°16' E 006°38'0 0.0
2014-Jul-17 01:33N 43°16' E 006°38'  
Track history (hours):
 
Tides and Currents Weather Stations Pressure Air Temp Water Temp Dewpoint Dewpoint Depression Visibility Wind Speed Wind Dir Waves Ship Positions

Harle

Last reported at 2014-Jul-27 00:34 UTC. Time now 2014-Jul-28 20:35 UTC.
Position N 42°58' E 007°07'.

Length 45 m; draft 2.7 m.

Type: Pleasure craft. MMSI: 319323000.

Date/timePositionNaut miles runAvg speedWind from/ knotsBaromVisibWave heightAir tempDewpointWater temp
2014-Jul-27 00:34N 42°58' E 007°07'1312.9
2014-Jul-26 23:33N 43°07' E 006°54'1312.7
2014-Jul-26 22:33N 43°17' E 006°43'4 4.2
2014-Jul-26 21:34N 43°17' E 006°38'0 0.0
2014-Jul-26 20:34N 43°17' E 006°38'0 0.0
2014-Jul-26 19:32N 43°16' E 006°38'0 0.0
2014-Jul-26 18:33N 43°17' E 006°38'0 0.0
2014-Jul-26 17:33N 43°17' E 006°38'2 1.8
2014-Jul-26 16:33N 43°17' E 006°40'3 3.2
2014-Jul-26 15:33N 43°14' E 006°40'0 0.0
2014-Jul-26 14:33N 43°14' E 006°40'0 0.0
2014-Jul-26 13:34N 43°14' E 006°40'0 0.0
2014-Jul-26 12:33N 43°14' E 006°40'0 0.0
2014-Jul-26 11:34N 43°14' E 006°40'0 0.0
2014-Jul-26 10:34N 43°14' E 006°40'3 3.4
2014-Jul-26 09:33N 43°17' E 006°38'0 0.3
2014-Jul-26 08:34N 43°16' E 006°38'0 0.0
2014-Jul-26 07:33N 43°16' E 006°38'0 0.0
2014-Jul-26 06:33N 43°16' E 006°38'0 0.0
2014-Jul-26 05:34N 43°16' E 006°38'0 0.0
2014-Jul-26 04:33N 43°16' E 006°38'0 0.0
2014-Jul-26 03:33N 43°16' E 006°38'0 0.0
2014-Jul-26 02:33N 43°16' E 006°38'0 0.0
2014-Jul-26 01:32N 43°16' E 006°38'0 0.0
2014-Jul-26 00:32N 43°16' E 006°38'0 0.0
2014-Jul-25 23:34N 43°16' E 006°38'0 0.0
2014-Jul-25 22:33N 43°16' E 006°38'0 0.0
2014-Jul-25 21:34N 43°16' E 006°38'0 0.0
2014-Jul-25 20:34N 43°16' E 006°38'0 0.0
2014-Jul-25 19:34N 43°16' E 006°38'0 0.0
2014-Jul-25 18:33N 43°16' E 006°38'0 0.0
2014-Jul-25 17:34N 43°16' E 006°38'0 0.0
2014-Jul-25 16:33N 43°16' E 006°38'0 0.1
2014-Jul-25 15:33N 43°16' E 006°38'3 2.4
2014-Jul-25 14:19N 43°14' E 006°40'0 0.0
2014-Jul-25 13:28N 43°14' E 006°40'0 0.0
2014-Jul-25 10:22N 43°14' E 006°40'3 3.7
2014-Jul-25 09:33N 43°17' E 006°38'1 0.8
2014-Jul-25 08:33N 43°16' E 006°37'0 0.0
2014-Jul-25 07:33N 43°16' E 006°37'0 0.0
2014-Jul-25 06:34N 43°16' E 006°37'0 0.0
2014-Jul-25 05:33N 43°16' E 006°37'0 0.0
2014-Jul-25 04:34N 43°16' E 006°37'0 0.0
2014-Jul-25 03:33N 43°16' E 006°37'0 0.0
2014-Jul-25 02:34N 43°16' E 006°37'0 0.0
2014-Jul-25 01:34N 43°16' E 006°37'0 0.0
2014-Jul-25 00:34N 43°16' E 006°37'0 0.0
2014-Jul-24 23:34N 43°16' E 006°37'0 0.0
2014-Jul-24 22:33N 43°16' E 006°37'0 0.0
2014-Jul-24 21:34N 43°16' E 006°37'0 0.0
2014-Jul-24 20:33N 43°16' E 006°37'0 0.0
2014-Jul-24 19:33N 43°16' E 006°37'0 0.0
2014-Jul-24 18:34N 43°16' E 006°37'0 0.1
2014-Jul-24 17:34N 43°16' E 006°37'3 3.3
2014-Jul-24 16:33N 43°14' E 006°40'0 0.0
2014-Jul-24 15:33N 43°14' E 006°40'0 0.0
2014-Jul-24 14:33N 43°14' E 006°40'0 0.0
2014-Jul-24 13:34N 43°14' E 006°40'0 0.0
2014-Jul-24 12:33N 43°14' E 006°40'1 0.5
2014-Jul-24 11:33N 43°14' E 006°41'3 2.7
2014-Jul-24 10:33N 43°16' E 006°38'0 0.0
2014-Jul-24 09:33N 43°16' E 006°38'0 0.0
2014-Jul-24 08:34N 43°16' E 006°38'0 0.0
2014-Jul-24 07:33N 43°16' E 006°38'0 0.0
2014-Jul-24 06:33N 43°16' E 006°38'0 0.0
2014-Jul-24 05:34N 43°16' E 006°38'0 0.0
2014-Jul-24 04:33N 43°16' E 006°38'0 0.0
2014-Jul-24 03:34N 43°16' E 006°38'0 0.0
2014-Jul-24 02:34N 43°16' E 006°38'0 0.0
2014-Jul-24 01:33N 43°16' E 006°38'0 0.0
2014-Jul-24 00:34N 43°16' E 006°38'0 0.0
2014-Jul-23 23:34N 43°16' E 006°38'0 0.0
2014-Jul-23 22:33N 43°16' E 006°38'0 0.0
2014-Jul-23 21:33N 43°16' E 006°38'0 0.0
2014-Jul-23 20:34N 43°16' E 006°38'0 0.0
2014-Jul-23 19:33N 43°16' E 006°38'0 0.0
2014-Jul-23 18:33N 43°16' E 006°38'0 0.0
2014-Jul-23 17:33N 43°16' E 006°38'3 3.3
2014-Jul-23 16:34N 43°16' E 006°43'7 0.9
2014-Jul-23 08:34N 43°09' E 006°39'7 7.5
2014-Jul-23 07:33N 43°17' E 006°37'0 0.1
2014-Jul-23 06:33N 43°17' E 006°38'0 0.0
2014-Jul-23 05:33N 43°17' E 006°38'0 0.0
2014-Jul-23 04:33N 43°17' E 006°38'0 0.0
2014-Jul-23 03:33N 43°17' E 006°38'0 0.0
2014-Jul-23 02:34N 43°17' E 006°38'0 0.0
2014-Jul-23 01:33N 43°17' E 006°38'0 0.0
2014-Jul-23 00:32N 43°17' E 006°38'0 0.0
2014-Jul-22 23:33N 43°17' E 006°38'0 0.0
2014-Jul-22 22:33N 43°17' E 006°38'0 0.0
2014-Jul-22 21:30N 43°17' E 006°37'0 0.0
2014-Jul-22 20:33N 43°17' E 006°37'0 0.0
2014-Jul-22 19:33N 43°17' E 006°37'0 0.0
2014-Jul-22 18:33N 43°17' E 006°38'0 0.0
2014-Jul-22 17:33N 43°17' E 006°38'3 3.5
2014-Jul-22 16:33N 43°14' E 006°40'0 0.0
2014-Jul-22 13:18N 43°14' E 006°40'0 0.0
2014-Jul-22 12:33N 43°14' E 006°40'0 0.0
2014-Jul-22 11:34N 43°14' E 006°40'0 0.0
2014-Jul-22 10:34N 43°14' E 006°40'0 0.0
2014-Jul-22 09:33N 43°14' E 006°40'0 0.4
2014-Jul-22 08:33N 43°14' E 006°41'1211.9
2014-Jul-22 07:33N 43°22' E 006°52'1210.7
2014-Jul-22 06:26N 43°33' E 007°01'0 0.4
2014-Jul-22 05:31N 43°33' E 007°01'0 0.0
2014-Jul-22 04:31N 43°33' E 007°01'0 0.0
2014-Jul-22 03:25N 43°33' E 007°01'0 0.0
2014-Jul-22 02:28N 43°33' E 007°01'0 0.0
2014-Jul-22 01:28N 43°33' E 007°01'0 0.0
2014-Jul-22 00:31N 43°33' E 007°01'0 0.0
2014-Jul-21 23:31N 43°33' E 007°01'0 0.0
2014-Jul-21 22:31N 43°33' E 007°01'0 0.0
2014-Jul-21 21:31N 43°33' E 007°01'0 0.0
2014-Jul-21 20:09N 43°33' E 007°01'0 0.0
2014-Jul-21 19:19N 43°33' E 007°01'0 0.0
2014-Jul-21 18:19N 43°33' E 007°01'0 0.0
2014-Jul-21 17:33N 43°33' E 007°01'0 0.0
2014-Jul-21 16:19N 43°33' E 007°01'0 0.5
2014-Jul-21 15:32N 43°33' E 007°01'0 0.4
2014-Jul-21 14:29N 43°33' E 007°00'0 0.1
2014-Jul-21 13:32N 43°33' E 007°00'0 0.0
2014-Jul-21 12:26N 43°33' E 007°00'1 0.7
2014-Jul-21 11:31N 43°33' E 007°01'0 0.0
2014-Jul-21 10:19N 43°33' E 007°01'0 0.0
2014-Jul-21 09:10N 43°33' E 007°01'0 0.0
2014-Jul-21 08:25N 43°33' E 007°01'0 0.0
2014-Jul-21 07:28N 43°33' E 007°01'0 0.0
2014-Jul-21 06:28N 43°33' E 007°01'0 0.0
2014-Jul-21 05:28N 43°33' E 007°01'0 0.0
2014-Jul-21 04:31N 43°33' E 007°01'0 0.0
2014-Jul-21 03:28N 43°33' E 007°01'0 0.0
2014-Jul-21 02:25N 43°33' E 007°01'0 0.0
2014-Jul-21 01:28N 43°33' E 007°01'0 0.0
2014-Jul-21 00:25N 43°33' E 007°01'0 0.0
2014-Jul-20 23:22N 43°33' E 007°01'0 0.0
2014-Jul-20 22:31N 43°33' E 007°01'0 0.0
2014-Jul-20 21:28N 43°33' E 007°01'0 0.0
2014-Jul-20 20:28N 43°33' E 007°01'0 0.0
2014-Jul-20 19:28N 43°33' E 007°01'0 0.0
2014-Jul-20 18:31N 43°33' E 007°01'0 0.0
2014-Jul-20 17:19N 43°33' E 007°01'1 0.7
2014-Jul-20 16:33N 43°32' E 007°01'2 1.4
2014-Jul-20 15:28N 43°31' E 007°02'0 0.0
2014-Jul-20 14:28N 43°31' E 007°02'0 0.0
2014-Jul-20 13:31N 43°31' E 007°02'0 0.0
2014-Jul-20 12:25N 43°31' E 007°02'0 0.2
2014-Jul-20 11:27N 43°31' E 007°02'2 1.9
2014-Jul-20 10:27N 43°33' E 007°01'0 0.0
2014-Jul-20 09:30N 43°33' E 007°01'0 0.0
2014-Jul-20 08:30N 43°33' E 007°01'0 0.0
2014-Jul-20 07:27N 43°33' E 007°01'0 0.0
2014-Jul-20 06:27N 43°33' E 007°01'0 0.0
2014-Jul-20 05:30N 43°33' E 007°01'0 0.0
2014-Jul-20 04:30N 43°33' E 007°01'0 0.0
2014-Jul-20 03:33N 43°33' E 007°01'0 0.0
2014-Jul-20 02:27N 43°33' E 007°01'0 0.0
2014-Jul-20 01:33N 43°33' E 007°01'0 0.0
2014-Jul-20 00:29N 43°33' E 007°01'0 0.0
2014-Jul-19 23:30N 43°33' E 007°01'0 0.0
2014-Jul-19 22:33N 43°33' E 007°01'0 0.0
2014-Jul-19 21:33N 43°33' E 007°01'0 0.0
2014-Jul-19 20:33N 43°33' E 007°01'0 0.0
2014-Jul-19 19:24N 43°33' E 007°01'0 0.0
2014-Jul-19 18:33N 43°33' E 007°01'0 0.0
2014-Jul-19 17:33N 43°33' E 007°01'0 0.0
2014-Jul-19 16:26N 43°33' E 007°01'0 0.0
2014-Jul-19 13:27N 43°33' E 007°01'0 0.0
2014-Jul-19 12:08N 43°33' E 007°01'0 0.0
2014-Jul-19 11:23N 43°33' E 007°01'0 0.0
2014-Jul-19 10:21N 43°33' E 007°01'0 0.0
2014-Jul-17 20:24N 43°33' E 007°01'0 0.0
2014-Jul-17 18:15N 43°33' E 007°01'0 0.3
2014-Jul-17 17:33N 43°33' E 007°01'1111.6
2014-Jul-17 16:33N 43°23' E 006°53'1312.9
2014-Jul-17 15:33N 43°14' E 006°41'2 0.3
2014-Jul-17 08:22N 43°12' E 006°40'1 1.4
2014-Jul-17 07:32N 43°13' E 006°40'4 4.4
2014-Jul-17 06:33N 43°17' E 006°39'1 0.9
2014-Jul-17 05:33N 43°16' E 006°38'0 0.0
2014-Jul-17 04:33N 43°16' E 006°38'0 0.0
2014-Jul-17 03:33N 43°16' E 006°38'0 0.0
2014-Jul-17 02:33N 43°16' E 006°38'0 0.0
2014-Jul-17 01:33N 43°16' E 006°38'  

Dump ship's entire track history